createdAt,value
2018-10-19T00:01:55.765Z,12.97
2018-10-19T00:04:24.190Z,9.17
2018-10-19T00:06:52.616Z,13.60
2018-10-19T00:09:21.034Z,9.80
2018-10-19T00:11:49.422Z,9.80
2018-10-19T00:14:17.772Z,9.83
2018-10-19T00:16:46.084Z,12.20
2018-10-19T00:19:14.438Z,7.83
2018-10-19T00:21:42.736Z,9.93
2018-10-19T00:24:11.118Z,11.87
2018-10-19T00:26:39.454Z,9.57
2018-10-19T00:29:07.743Z,9.07
2018-10-19T00:31:36.042Z,7.80
2018-10-19T00:34:04.502Z,7.23
2018-10-19T00:36:32.923Z,7.53
2018-10-19T00:39:01.338Z,9.90
2018-10-19T00:41:29.746Z,7.20
2018-10-19T00:43:58.095Z,7.00
2018-10-19T00:46:26.388Z,8.97
2018-10-19T00:48:54.724Z,6.33
2018-10-19T00:51:23.112Z,7.10
2018-10-19T00:53:51.366Z,6.17
2018-10-19T00:56:19.712Z,6.80
2018-10-19T00:58:48.042Z,6.83
2018-10-19T01:01:16.332Z,8.30
2018-10-19T01:03:44.670Z,6.37
2018-10-19T01:06:13.096Z,7.00
2018-10-19T01:08:41.417Z,6.73
2018-10-19T01:11:09.889Z,5.83
2018-10-19T01:13:38.140Z,5.20
2018-10-19T01:16:06.428Z,6.20
2018-10-19T01:18:34.876Z,7.30
2018-10-19T01:21:03.354Z,6.67
2018-10-19T01:23:31.820Z,6.60
2018-10-19T01:26:00.098Z,5.40
2018-10-19T01:28:28.417Z,5.23
2018-10-19T01:30:56.772Z,5.33
2018-10-19T01:33:25.124Z,7.93
2018-10-19T01:35:53.540Z,6.93
2018-10-19T01:38:21.876Z,5.83
2018-10-19T01:40:50.246Z,6.00
2018-10-19T01:43:18.540Z,4.80
2018-10-19T01:45:52.362Z,5.27
2018-10-19T01:48:20.776Z,4.57
2018-10-19T01:50:49.300Z,4.50
2018-10-19T01:53:17.683Z,4.97
2018-10-19T01:55:46.182Z,4.97
2018-10-19T01:58:14.708Z,5.60
2018-10-19T02:00:43.095Z,4.90
2018-10-19T02:03:11.620Z,4.97
2018-10-19T02:05:40.259Z,4.57
2018-10-19T02:08:10.351Z,4.43
2018-10-19T02:10:38.942Z,4.80
2018-10-19T02:13:07.602Z,4.47
2018-10-19T02:15:36.085Z,4.47
2018-10-19T02:18:04.720Z,3.93
2018-10-19T02:20:33.051Z,4.43
2018-10-19T02:23:01.527Z,3.73
2018-10-19T02:25:29.870Z,3.80
2018-10-19T02:27:58.862Z,6.70
2018-10-19T02:30:27.154Z,4.77
2018-10-19T02:32:55.612Z,4.17
2018-10-19T02:35:23.894Z,4.43
2018-10-19T02:37:52.224Z,4.87
2018-10-19T02:40:20.627Z,4.17
2018-10-19T02:42:48.998Z,3.27
2018-10-19T02:45:17.513Z,4.70
2018-10-19T02:47:45.792Z,3.80
2018-10-19T02:50:14.231Z,4.00
2018-10-19T02:52:42.546Z,4.10
2018-10-19T02:55:10.978Z,3.63
2018-10-19T02:57:39.429Z,4.07
2018-10-19T03:00:09.853Z,6.50
2018-10-19T03:02:38.193Z,4.10
2018-10-19T03:05:07.358Z,3.50
2018-10-19T03:07:35.659Z,3.33
2018-10-19T03:10:04.409Z,4.20
2018-10-19T03:12:32.723Z,3.10
2018-10-19T03:15:01.148Z,3.80
2018-10-19T03:17:29.485Z,6.73
2018-10-19T03:19:57.965Z,3.73
2018-10-19T03:22:26.299Z,4.63
2018-10-19T03:24:54.667Z,3.37
2018-10-19T03:27:22.943Z,3.73
2018-10-19T03:29:51.365Z,3.00
2018-10-19T03:32:19.650Z,4.23
2018-10-19T03:34:48.085Z,3.50
2018-10-19T03:37:16.503Z,4.13
2018-10-19T03:39:44.907Z,3.00
2018-10-19T03:42:13.226Z,4.27
2018-10-19T03:44:41.628Z,3.50
2018-10-19T03:47:10.002Z,5.70
2018-10-19T03:49:38.266Z,2.87
2018-10-19T03:52:06.752Z,3.00
2018-10-19T03:54:35.124Z,3.20
2018-10-19T03:57:04.312Z,3.23
2018-10-19T03:59:32.790Z,3.40
2018-10-19T04:02:01.108Z,4.10
2018-10-19T04:04:29.641Z,3.00
2018-10-19T04:06:58.020Z,3.03
2018-10-19T04:09:26.411Z,2.87
2018-10-19T04:11:54.737Z,3.10
2018-10-19T04:14:23.113Z,3.43
2018-10-19T04:16:51.479Z,3.73
2018-10-19T04:19:19.783Z,3.27
2018-10-19T04:21:48.075Z,4.20
2018-10-19T04:24:16.420Z,3.47
2018-10-19T04:26:44.831Z,3.27
2018-10-19T04:29:13.311Z,1.97
2018-10-19T04:31:41.632Z,2.60
2018-10-19T04:34:10.081Z,3.00
2018-10-19T04:36:38.411Z,3.27
2018-10-19T04:39:08.014Z,2.63
2018-10-19T04:41:36.471Z,3.00
2018-10-19T04:44:04.797Z,3.40
2018-10-19T04:46:33.117Z,3.43
2018-10-19T04:49:01.375Z,3.20
2018-10-19T04:51:29.815Z,2.50
2018-10-19T04:53:58.104Z,2.50
2018-10-19T04:56:26.401Z,2.20
2018-10-19T04:58:54.716Z,2.67
2018-10-19T05:01:23.779Z,2.60
2018-10-19T05:03:52.138Z,2.63
2018-10-19T05:06:20.745Z,2.37
2018-10-19T05:08:49.121Z,2.60
2018-10-19T05:11:17.909Z,2.33
2018-10-19T05:13:46.101Z,2.57
2018-10-19T05:16:14.462Z,2.00
2018-10-19T05:18:42.735Z,2.53
2018-10-19T05:21:12.223Z,2.50
2018-10-19T05:23:40.525Z,2.37
2018-10-19T05:26:09.136Z,3.17
2018-10-19T05:28:37.501Z,2.43
2018-10-19T05:31:05.899Z,7.33
2018-10-19T05:33:34.214Z,2.93
2018-10-19T05:36:02.692Z,3.83
2018-10-19T05:38:31.073Z,8.50
2018-10-19T05:40:59.635Z,7.47
2018-10-19T05:43:27.996Z,7.97
2018-10-19T05:45:57.535Z,10.93
2018-10-19T05:48:26.029Z,10.20
2018-10-19T05:50:54.545Z,15.10
2018-10-19T05:53:22.817Z,24.43
2018-10-19T05:55:51.197Z,14.70
2018-10-19T05:58:19.543Z,17.17
2018-10-19T06:00:47.983Z,21.33
2018-10-19T06:03:16.371Z,15.23
2018-10-19T06:05:44.709Z,15.83
2018-10-19T06:08:13.240Z,18.03
2018-10-19T06:10:41.582Z,23.60
2018-10-19T06:13:09.877Z,20.53
2018-10-19T06:15:38.183Z,25.00
2018-10-19T06:18:06.526Z,35.37
2018-10-19T06:20:34.839Z,24.00
2018-10-19T06:23:03.194Z,14.43
2018-10-19T06:25:31.459Z,15.47
2018-10-19T06:27:59.871Z,21.23
2018-10-19T06:30:28.227Z,16.87
2018-10-19T06:32:56.511Z,15.00
2018-10-19T06:35:25.165Z,20.50
2018-10-19T06:37:53.494Z,16.83
2018-10-19T06:40:21.817Z,13.50
2018-10-19T06:42:50.279Z,19.17
2018-10-19T06:45:18.569Z,17.27
2018-10-19T06:47:46.904Z,14.40
2018-10-19T06:50:15.310Z,16.63
2018-10-19T06:52:43.543Z,18.33
2018-10-19T06:55:15.921Z,17.73
2018-10-19T06:57:44.587Z,13.67
2018-10-19T07:00:13.909Z,11.00
2018-10-19T07:02:42.294Z,15.27
2018-10-19T07:05:10.762Z,18.50
2018-10-19T07:07:38.983Z,12.53
2018-10-19T07:10:08.345Z,13.53
2018-10-19T07:12:36.668Z,10.63
2018-10-19T07:15:06.379Z,12.90
2018-10-19T07:17:34.626Z,21.57
2018-10-19T07:20:03.109Z,7.53
2018-10-19T07:22:31.678Z,18.80
2018-10-19T07:25:00.054Z,8.97
2018-10-19T07:27:28.380Z,8.70
2018-10-19T07:29:56.782Z,5.60
2018-10-19T07:32:25.074Z,15.93
2018-10-19T07:34:53.532Z,13.30
2018-10-19T07:37:21.858Z,10.17
2018-10-19T07:39:50.174Z,8.87
2018-10-19T07:42:18.868Z,7.13
2018-10-19T07:44:47.057Z,8.80
2018-10-19T07:47:15.522Z,8.57
2018-10-19T07:49:43.630Z,4.30
2018-10-19T07:52:11.966Z,4.73
2018-10-19T07:54:40.308Z,6.70
2018-10-19T07:57:08.626Z,4.47
2018-10-19T07:59:37.074Z,6.83
2018-10-19T08:02:06.031Z,4.73
2018-10-19T08:04:34.398Z,6.40
2018-10-19T08:07:02.751Z,11.93
2018-10-19T08:09:31.020Z,6.30
2018-10-19T08:11:59.402Z,12.10
2018-10-19T08:14:28.000Z,6.50
2018-10-19T08:16:56.321Z,6.00
2018-10-19T08:19:24.656Z,4.67
2018-10-19T08:21:53.030Z,9.70
2018-10-19T08:24:21.326Z,6.07
2018-10-19T08:26:49.727Z,5.30
2018-10-19T08:29:18.116Z,5.70
2018-10-19T08:31:46.406Z,15.60
2018-10-19T08:34:14.817Z,7.10
2018-10-19T08:36:43.116Z,5.53
2018-10-19T08:39:11.504Z,14.33
2018-10-19T08:41:39.858Z,8.47
2018-10-19T08:44:08.076Z,6.60
2018-10-19T08:46:38.594Z,6.80
2018-10-19T08:49:08.603Z,7.63
2018-10-19T08:51:37.324Z,10.40
2018-10-19T08:54:06.091Z,10.00
2018-10-19T08:56:34.454Z,8.40
2018-10-19T08:59:02.883Z,8.13
2018-10-19T09:01:31.150Z,6.23
2018-10-19T09:03:59.511Z,10.50
2018-10-19T09:06:27.954Z,7.47
2018-10-19T09:08:56.452Z,7.60
2018-10-19T09:11:25.162Z,8.10
2018-10-19T09:13:53.329Z,7.87
2018-10-19T09:16:21.744Z,15.87
2018-10-19T09:18:50.084Z,10.57
2018-10-19T09:21:18.404Z,6.67
2018-10-19T09:23:46.758Z,8.97
2018-10-19T09:26:15.079Z,7.67
2018-10-19T09:28:43.333Z,9.80
2018-10-19T09:31:11.700Z,9.97
2018-10-19T09:33:40.026Z,11.20
2018-10-19T09:36:08.516Z,11.50
2018-10-19T09:38:36.735Z,9.30
2018-10-19T09:41:05.393Z,7.37
2018-10-19T09:43:33.607Z,18.47
2018-10-19T09:46:02.015Z,6.17
2018-10-19T09:48:30.322Z,7.70
2018-10-19T09:50:58.715Z,8.07
2018-10-19T09:53:27.015Z,7.90
2018-10-19T09:55:55.520Z,10.07
2018-10-19T09:58:23.947Z,11.70
2018-10-19T10:00:57.664Z,8.70
2018-10-19T10:03:26.775Z,11.33
2018-10-19T10:05:55.359Z,7.40
2018-10-19T10:08:24.383Z,7.80
2018-10-19T10:10:52.952Z,14.53
2018-10-19T10:13:21.382Z,9.33
2018-10-19T10:15:49.792Z,7.60
2018-10-19T10:18:18.033Z,6.70
2018-10-19T10:20:46.334Z,7.17
2018-10-19T10:23:14.841Z,9.00
2018-10-19T10:25:43.245Z,6.63
2018-10-19T10:28:11.679Z,9.80
2018-10-19T10:30:39.939Z,7.90
2018-10-19T10:33:08.613Z,13.43
2018-10-19T10:35:36.989Z,9.47
2018-10-19T10:38:05.821Z,10.97
2018-10-19T10:40:34.089Z,8.87
2018-10-19T10:43:02.417Z,11.27
2018-10-19T10:45:30.737Z,14.27
2018-10-19T10:47:59.091Z,15.47
2018-10-19T10:50:27.394Z,10.73
2018-10-19T10:52:55.743Z,15.07
2018-10-19T10:55:24.123Z,13.67
2018-10-19T10:57:52.555Z,7.70
2018-10-19T11:00:20.912Z,7.13
2018-10-19T11:02:49.207Z,11.00
2018-10-19T11:05:17.515Z,9.10
2018-10-19T11:07:45.954Z,9.50
2018-10-19T11:10:14.405Z,11.70
2018-10-19T11:12:42.659Z,10.33
2018-10-19T11:15:10.933Z,13.13
2018-10-19T11:17:39.362Z,10.37
2018-10-19T11:20:07.712Z,8.30
2018-10-19T11:22:36.046Z,8.80
2018-10-19T11:25:04.408Z,8.30
2018-10-19T11:27:32.707Z,9.90
2018-10-19T11:30:01.063Z,10.17
2018-10-19T11:32:29.475Z,8.93
2018-10-19T11:34:57.779Z,14.03
2018-10-19T11:37:26.263Z,14.33
2018-10-19T11:40:06.028Z,12.37
2018-10-19T11:42:34.321Z,10.50
2018-10-19T11:45:02.629Z,11.80
2018-10-19T11:47:31.007Z,18.13
2018-10-19T11:49:59.375Z,13.40
2018-10-19T11:52:27.706Z,12.40
2018-10-19T11:54:56.092Z,17.30
2018-10-19T11:57:24.473Z,13.43
2018-10-19T11:59:52.931Z,15.20
2018-10-19T12:02:21.203Z,14.33
2018-10-19T12:04:49.579Z,13.43
2018-10-19T12:07:17.927Z,11.87
2018-10-19T12:09:46.233Z,12.43
2018-10-19T12:12:14.694Z,16.60
2018-10-19T12:14:42.981Z,14.70
2018-10-19T12:17:11.560Z,11.43
2018-10-19T12:19:39.969Z,14.27
2018-10-19T12:22:08.338Z,18.37
2018-10-19T12:24:36.743Z,18.70
2018-10-19T12:27:05.146Z,15.77
2018-10-19T12:29:33.427Z,16.13
2018-10-19T12:32:01.839Z,15.67
2018-10-19T12:34:30.131Z,15.37
2018-10-19T12:36:58.436Z,16.97
2018-10-19T12:39:26.767Z,16.70
2018-10-19T12:41:55.105Z,17.47
2018-10-19T12:44:23.439Z,15.53
2018-10-19T12:47:03.255Z,14.83
2018-10-19T12:49:31.689Z,20.63
2018-10-19T12:52:00.115Z,20.33
2018-10-19T12:54:28.564Z,18.13
2018-10-19T12:56:56.905Z,14.83
2018-10-19T12:59:25.185Z,17.97
2018-10-19T13:01:53.508Z,12.20
2018-10-19T13:04:21.859Z,13.53
2018-10-19T13:06:50.322Z,17.73
2018-10-19T13:09:18.801Z,16.50
2018-10-19T13:11:47.107Z,15.47
2018-10-19T13:14:15.529Z,11.67
2018-10-19T13:16:43.812Z,16.40
2018-10-19T13:19:12.299Z,26.17
2018-10-19T13:21:40.537Z,25.10
2018-10-19T13:24:08.863Z,23.70
2018-10-19T13:26:37.140Z,22.40
2018-10-19T13:29:05.817Z,27.60
2018-10-19T13:31:34.203Z,28.33
2018-10-19T13:34:02.923Z,24.82
2018-10-19T13:36:31.449Z,22.13
2018-10-19T13:38:59.861Z,22.70
2018-10-19T13:41:28.243Z,20.57
2018-10-19T13:43:56.563Z,18.23
2018-10-19T13:46:24.920Z,19.20
2018-10-19T13:48:53.365Z,15.53
2018-10-19T13:51:21.704Z,15.43
2018-10-19T13:53:50.031Z,20.50
2018-10-19T13:56:18.541Z,14.90
2018-10-19T13:58:46.886Z,16.10
2018-10-19T14:01:15.259Z,17.03
2018-10-19T14:03:43.597Z,13.77
2018-10-19T14:06:11.959Z,20.13
2018-10-19T14:08:40.281Z,15.43
2018-10-19T14:11:08.741Z,16.80
2018-10-19T14:13:37.191Z,16.70
2018-10-19T14:16:05.755Z,21.00
2018-10-19T14:18:34.065Z,23.67
2018-10-19T14:21:02.622Z,14.50
2018-10-19T14:23:30.909Z,16.13
2018-10-19T14:25:59.165Z,18.83
2018-10-19T14:28:27.590Z,16.30
2018-10-19T14:30:56.071Z,22.57
2018-10-19T14:33:24.561Z,13.93
2018-10-19T14:35:52.730Z,12.10
2018-10-19T14:38:21.060Z,17.57
2018-10-19T14:40:49.377Z,10.30
2018-10-19T14:43:17.745Z,17.17
2018-10-19T14:45:46.114Z,16.03
2018-10-19T14:48:14.461Z,13.33
2018-10-19T14:50:42.832Z,14.97
2018-10-19T14:53:11.249Z,17.10
2018-10-19T14:55:39.599Z,13.80
2018-10-19T14:58:07.913Z,17.30
2018-10-19T15:00:36.316Z,18.37
2018-10-19T15:03:04.784Z,13.20
2018-10-19T15:05:33.140Z,13.70
2018-10-19T15:08:01.495Z,15.50
2018-10-19T15:10:30.030Z,13.80
2018-10-19T15:12:58.157Z,17.30
2018-10-19T15:15:26.589Z,13.83
2018-10-19T15:17:54.905Z,17.93
2018-10-19T15:20:23.273Z,17.20
2018-10-19T15:22:51.599Z,12.73
2018-10-19T15:25:19.906Z,16.90
2018-10-19T15:27:49.009Z,14.53
2018-10-19T15:30:18.779Z,20.17
2018-10-19T15:32:47.041Z,23.10
2018-10-19T15:35:15.500Z,10.80
2018-10-19T15:37:43.934Z,15.47
2018-10-19T15:40:12.772Z,17.90
2018-10-19T15:42:41.105Z,14.30
2018-10-19T15:45:11.260Z,12.77
2018-10-19T15:47:39.467Z,25.63
2018-10-19T15:50:08.335Z,28.10
2018-10-19T15:52:36.801Z,18.93
2018-10-19T15:55:05.855Z,21.27
2018-10-19T15:57:34.269Z,16.17
2018-10-19T16:00:02.848Z,35.60
2018-10-19T16:02:31.235Z,30.70
2018-10-19T16:04:59.577Z,21.33
2018-10-19T16:07:28.000Z,15.47
2018-10-19T16:09:56.485Z,35.33
2018-10-19T16:12:24.889Z,22.53
2018-10-19T16:14:53.356Z,18.27
2018-10-19T16:17:21.679Z,24.53
2018-10-19T16:19:50.032Z,25.33
2018-10-19T16:22:18.390Z,20.90
2018-10-19T16:24:46.809Z,21.60
2018-10-19T16:27:15.396Z,20.67
2018-10-19T16:29:43.554Z,17.27
2018-10-19T16:32:11.995Z,25.53
2018-10-19T16:34:40.622Z,22.90
2018-10-19T16:37:08.909Z,22.30
2018-10-19T16:39:37.256Z,19.07
2018-10-19T16:42:05.678Z,19.17
2018-10-19T16:44:34.001Z,25.53
2018-10-19T16:47:02.408Z,20.47
2018-10-19T16:49:30.746Z,23.20
2018-10-19T16:51:59.165Z,22.40
2018-10-19T16:54:27.509Z,18.47
2018-10-19T16:56:55.908Z,20.73
2018-10-19T16:59:24.250Z,25.13
2018-10-19T17:01:52.669Z,23.70
2018-10-19T17:04:21.036Z,19.13
2018-10-19T17:06:49.322Z,19.83
2018-10-19T17:09:17.776Z,15.93
2018-10-19T17:11:46.210Z,33.17
2018-10-19T17:14:14.521Z,25.40
2018-10-19T17:16:42.884Z,24.00
2018-10-19T17:19:11.324Z,48.23
2018-10-19T17:21:39.853Z,23.70
2018-10-19T17:24:08.297Z,18.67
2018-10-19T17:26:36.724Z,26.87
2018-10-19T17:29:05.290Z,21.57
2018-10-19T17:31:33.701Z,22.43
2018-10-19T17:34:02.020Z,15.47
2018-10-19T17:36:30.402Z,18.33
2018-10-19T17:38:58.823Z,21.23
2018-10-19T17:41:27.089Z,21.27
2018-10-19T17:43:55.484Z,18.00
2018-10-19T17:46:23.831Z,21.10
2018-10-19T17:48:52.523Z,20.80
2018-10-19T17:51:20.899Z,15.07
2018-10-19T17:53:49.306Z,19.43
2018-10-19T17:56:17.608Z,19.13
2018-10-19T17:58:46.019Z,15.73
2018-10-19T18:01:14.379Z,13.80
2018-10-19T18:03:42.788Z,18.47
2018-10-19T18:06:11.273Z,13.13
2018-10-19T18:08:39.568Z,20.23
2018-10-19T18:11:07.973Z,15.53
2018-10-19T18:13:36.498Z,12.43
2018-10-19T18:16:05.109Z,13.33
2018-10-19T18:18:33.535Z,16.20
2018-10-19T18:21:02.046Z,12.90
2018-10-19T18:23:30.477Z,16.27
2018-10-19T18:25:58.795Z,8.73
2018-10-19T18:28:27.184Z,9.53
2018-10-19T18:30:55.485Z,14.77
2018-10-19T18:33:23.914Z,11.77
2018-10-19T18:35:52.624Z,11.00
2018-10-19T18:38:20.967Z,13.90
2018-10-19T18:40:49.274Z,8.73
2018-10-19T18:43:17.761Z,13.43
2018-10-19T18:45:46.179Z,11.70
2018-10-19T18:48:14.617Z,10.37
2018-10-19T18:50:43.130Z,13.93
2018-10-19T18:53:11.502Z,14.33
2018-10-19T18:55:39.792Z,10.00
2018-10-19T18:58:08.107Z,11.10
2018-10-19T19:00:36.691Z,13.00
2018-10-19T19:03:05.639Z,11.70
2018-10-19T19:05:33.961Z,8.03
2018-10-19T19:08:02.456Z,9.23
2018-10-19T19:10:30.744Z,9.70
2018-10-19T19:13:04.446Z,10.07
2018-10-19T19:15:32.727Z,10.47
2018-10-19T19:18:01.166Z,8.83
2018-10-19T19:20:30.510Z,10.00
2018-10-19T19:22:59.013Z,7.80
2018-10-19T19:25:32.802Z,9.87
2018-10-19T19:28:01.168Z,10.50
2018-10-19T19:30:29.659Z,6.80
2018-10-19T19:33:03.409Z,11.07
2018-10-19T19:35:31.828Z,8.70
2018-10-19T19:38:00.248Z,10.30
2018-10-19T19:40:28.615Z,7.60
2018-10-19T19:42:58.317Z,10.57
2018-10-19T19:45:26.717Z,10.57
2018-10-19T19:48:00.511Z,9.63
2018-10-19T19:50:28.786Z,7.10
2018-10-19T19:52:57.224Z,9.10
2018-10-19T19:55:25.716Z,6.87
2018-10-19T19:57:54.075Z,11.83
2018-10-19T20:00:22.401Z,14.57
2018-10-19T20:02:51.503Z,7.10
2018-10-19T20:05:19.825Z,10.77
2018-10-19T20:07:48.207Z,11.90
2018-10-19T20:10:16.522Z,7.70
2018-10-19T20:12:44.833Z,7.33
2018-10-19T20:15:13.257Z,9.17
2018-10-19T20:17:41.705Z,7.80
2018-10-19T20:20:11.923Z,10.73
2018-10-19T20:22:41.339Z,6.47
2018-10-19T20:25:10.928Z,7.57
2018-10-19T20:27:39.860Z,7.40
2018-10-19T20:30:11.815Z,8.27
2018-10-19T20:32:40.410Z,7.03
2018-10-19T20:35:09.114Z,6.77
2018-10-19T20:37:37.401Z,6.80
2018-10-19T20:40:05.945Z,7.37
2018-10-19T20:42:34.421Z,8.10
2018-10-19T20:45:02.988Z,6.17
2018-10-19T20:47:31.361Z,5.67
2018-10-19T20:49:59.759Z,6.80
2018-10-19T20:52:28.269Z,6.73
2018-10-19T20:54:56.595Z,6.50
2018-10-19T20:57:24.899Z,6.10
2018-10-19T20:59:53.347Z,9.80
2018-10-19T21:02:21.923Z,7.10
2018-10-19T21:04:50.347Z,6.30
2018-10-19T21:07:19.268Z,7.80
2018-10-19T21:09:47.701Z,7.23
2018-10-19T21:12:16.108Z,12.40
2018-10-19T21:14:44.438Z,8.23
2018-10-19T21:17:12.899Z,7.60
2018-10-19T21:19:41.268Z,6.73
2018-10-19T21:22:09.559Z,5.90
2018-10-19T21:24:37.999Z,5.80
2018-10-19T21:27:06.388Z,6.80
2018-10-19T21:29:34.744Z,6.23
2018-10-19T21:32:03.119Z,5.67
2018-10-19T21:34:31.566Z,6.03
2018-10-19T21:37:00.056Z,10.80
2018-10-19T21:39:28.424Z,7.00
2018-10-19T21:41:56.766Z,5.87
2018-10-19T21:44:25.092Z,5.60
2018-10-19T21:46:53.852Z,14.10
2018-10-19T21:49:22.115Z,7.80
2018-10-19T21:51:50.546Z,7.33
2018-10-19T21:54:18.889Z,7.17
2018-10-19T21:56:47.209Z,6.50
2018-10-19T21:59:15.575Z,6.23
2018-10-19T22:01:43.901Z,6.53
2018-10-19T22:04:12.268Z,6.70
2018-10-19T22:06:40.667Z,4.53
2018-10-19T22:09:11.076Z,5.93
2018-10-19T22:11:40.007Z,5.70
2018-10-19T22:14:09.156Z,5.83
2018-10-19T22:16:37.847Z,6.93
2018-10-19T22:19:06.919Z,5.33
2018-10-19T22:21:35.225Z,5.70
2018-10-19T22:24:03.566Z,8.13
2018-10-19T22:26:32.384Z,6.40
2018-10-19T22:29:00.888Z,5.70
2018-10-19T22:31:29.293Z,4.50
2018-10-19T22:33:57.700Z,8.30
2018-10-19T22:36:26.013Z,7.33
2018-10-19T22:38:54.579Z,5.90
2018-10-19T22:41:22.931Z,5.20
2018-10-19T22:43:51.757Z,5.10
2018-10-19T22:46:20.319Z,6.60
2018-10-19T22:48:48.897Z,5.70
2018-10-19T22:51:17.316Z,5.60
2018-10-19T22:53:45.757Z,5.13
2018-10-19T22:56:14.131Z,6.07
2018-10-19T22:58:42.496Z,5.50
2018-10-19T23:01:11.154Z,6.07
2018-10-19T23:03:40.442Z,5.97
2018-10-19T23:06:08.730Z,5.47
2018-10-19T23:08:37.079Z,5.17
2018-10-19T23:11:05.680Z,5.47
2018-10-19T23:13:34.088Z,5.23
2018-10-19T23:16:02.575Z,4.23
2018-10-19T23:18:30.902Z,11.33
2018-10-19T23:20:59.361Z,5.07
2018-10-19T23:23:27.799Z,5.90
2018-10-19T23:25:56.150Z,4.30
2018-10-19T23:28:24.480Z,5.70
2018-10-19T23:30:52.838Z,10.30
2018-10-19T23:33:21.131Z,5.60
2018-10-19T23:35:49.523Z,5.17
2018-10-19T23:38:17.837Z,4.40
2018-10-19T23:40:46.151Z,6.23
2018-10-19T23:43:14.493Z,4.80
2018-10-19T23:45:42.706Z,4.90
2018-10-19T23:48:11.011Z,8.57
2018-10-19T23:50:39.466Z,4.87
2018-10-19T23:53:08.000Z,4.60
2018-10-19T23:55:36.354Z,5.30
2018-10-19T23:58:04.891Z,5.37
